createdAt,value
2023-03-21T00:00:41.284Z,26.80
2023-03-21T00:03:08.975Z,27.17
2023-03-21T00:05:42.390Z,28.97
2023-03-21T00:08:09.156Z,27.97
2023-03-21T00:10:41.239Z,28.00
2023-03-21T00:13:13.967Z,27.33
2023-03-21T00:16:01.903Z,26.60
2023-03-21T00:18:31.781Z,27.60
2023-03-21T00:21:29.340Z,26.53
2023-03-21T00:23:46.814Z,27.73
2023-03-21T00:26:14.200Z,27.90
2023-03-21T00:28:42.114Z,27.13
2023-03-21T00:31:09.406Z,28.03
2023-03-21T00:33:37.271Z,27.77
2023-03-21T00:36:05.746Z,28.43
2023-03-21T00:38:32.277Z,26.40
2023-03-21T00:41:04.572Z,28.27
2023-03-21T00:43:34.231Z,27.93
2023-03-21T00:46:00.894Z,27.87
2023-03-21T00:48:27.970Z,27.70
2023-03-21T00:50:57.171Z,28.60
2023-03-21T00:53:23.855Z,29.17
2023-03-21T00:55:50.408Z,29.20
2023-03-21T00:58:17.709Z,29.80
2023-03-21T01:00:47.039Z,30.93
2023-03-21T01:03:24.312Z,30.13
2023-03-21T01:06:05.089Z,30.00
2023-03-21T01:08:51.283Z,31.27
2023-03-21T01:11:22.813Z,29.73
2023-03-21T01:14:20.868Z,31.27
2023-03-21T01:16:37.240Z,30.20
2023-03-21T01:19:09.332Z,33.80
2023-03-21T01:21:41.267Z,31.17
2023-03-21T01:24:08.119Z,28.83
2023-03-21T01:26:34.619Z,31.80
2023-03-21T01:29:01.140Z,31.70
2023-03-21T01:31:27.652Z,31.20
2023-03-21T01:33:54.126Z,30.40
2023-03-21T01:36:25.858Z,30.90
2023-03-21T01:38:53.347Z,32.10
2023-03-21T01:41:41.963Z,32.70
2023-03-21T01:44:17.446Z,33.10
2023-03-21T01:47:07.382Z,30.90
2023-03-21T01:49:38.963Z,33.53
2023-03-21T01:52:13.182Z,31.07
2023-03-21T01:54:43.244Z,33.83
2023-03-21T01:57:13.532Z,32.03
2023-03-21T01:59:46.018Z,33.20
2023-03-21T02:02:17.923Z,32.70
2023-03-21T02:04:56.071Z,33.70
2023-03-21T02:07:28.813Z,33.93
2023-03-21T02:09:56.360Z,33.03
2023-03-21T02:12:23.330Z,32.97
2023-03-21T02:14:50.236Z,35.73
2023-03-21T02:17:38.422Z,33.77
2023-03-21T02:20:27.657Z,32.20
2023-03-21T02:23:39.173Z,32.43
2023-03-21T02:26:17.780Z,32.40
2023-03-21T02:29:04.849Z,32.30
2023-03-21T02:31:40.710Z,32.20
2023-03-21T02:34:22.123Z,34.80
2023-03-21T02:37:07.277Z,33.53
2023-03-21T02:40:15.857Z,33.93
2023-03-21T02:43:22.175Z,35.63
2023-03-21T02:45:55.168Z,34.47
2023-03-21T02:48:44.771Z,35.53
2023-03-21T02:51:19.009Z,35.53
2023-03-21T02:53:53.263Z,35.10
2023-03-21T02:56:27.372Z,35.47
2023-03-21T02:58:53.894Z,36.60
2023-03-21T03:01:20.867Z,36.10
2023-03-21T03:03:47.618Z,34.90
2023-03-21T03:06:25.714Z,34.73
2023-03-21T03:09:31.666Z,36.57
2023-03-21T03:12:14.044Z,34.87
2023-03-21T03:15:02.689Z,34.63
2023-03-21T03:17:43.080Z,35.67
2023-03-21T03:20:25.949Z,35.90
2023-03-21T03:23:54.331Z,34.20
2023-03-21T03:26:27.069Z,36.43
2023-03-21T03:28:56.333Z,37.07
2023-03-21T03:31:30.539Z,36.13
2023-03-21T03:34:00.998Z,36.63
2023-03-21T03:36:33.106Z,38.23
2023-03-21T03:39:00.913Z,36.53
2023-03-21T03:41:29.425Z,34.73
2023-03-21T03:43:58.518Z,38.03
2023-03-21T03:46:46.813Z,36.57
2023-03-21T03:49:15.750Z,34.37
2023-03-21T03:51:58.317Z,34.93
2023-03-21T03:54:29.871Z,33.67
2023-03-21T03:56:56.576Z,35.47
2023-03-21T03:59:24.246Z,35.73
2023-03-21T04:01:51.512Z,36.27
2023-03-21T04:04:18.097Z,36.73
2023-03-21T04:06:51.742Z,36.57
2023-03-21T04:09:22.162Z,37.03
2023-03-21T04:11:51.537Z,36.07
2023-03-21T04:14:18.045Z,37.63
2023-03-21T04:16:44.503Z,37.27
2023-03-21T04:19:11.107Z,36.40
2023-03-21T04:21:37.703Z,36.33
2023-03-21T04:24:04.753Z,36.50
2023-03-21T04:26:33.430Z,37.87
2023-03-21T04:29:00.912Z,36.37
2023-03-21T04:31:28.681Z,38.73
2023-03-21T04:33:55.958Z,37.80
2023-03-21T04:36:26.412Z,39.00
2023-03-21T04:38:53.354Z,39.03
2023-03-21T04:41:20.333Z,38.80
2023-03-21T04:43:47.499Z,37.93
2023-03-21T04:46:14.040Z,40.47
2023-03-21T04:48:40.599Z,40.10
2023-03-21T04:51:07.107Z,39.93
2023-03-21T04:53:33.593Z,40.03
2023-03-21T04:56:00.710Z,37.53
2023-03-21T04:58:27.482Z,37.63
2023-03-21T05:00:54.062Z,35.80
2023-03-21T05:03:22.025Z,37.77
2023-03-21T05:05:49.202Z,38.00
2023-03-21T05:08:18.330Z,38.67
2023-03-21T05:10:44.765Z,39.93
2023-03-21T05:13:11.313Z,38.00
2023-03-21T05:15:38.280Z,40.00
2023-03-21T05:18:11.492Z,38.97
2023-03-21T05:20:42.789Z,39.67
2023-03-21T05:23:12.674Z,38.87
2023-03-21T05:25:40.341Z,38.83
2023-03-21T05:28:07.864Z,39.27
2023-03-21T05:30:34.629Z,41.70
2023-03-21T05:33:01.316Z,41.10
2023-03-21T05:35:27.903Z,42.70
2023-03-21T05:37:54.380Z,43.17
2023-03-21T05:40:21.388Z,43.30
2023-03-21T05:42:48.204Z,43.70
2023-03-21T05:45:15.681Z,43.83
2023-03-21T05:47:42.229Z,42.57
2023-03-21T05:50:09.806Z,42.57
2023-03-21T05:52:36.266Z,42.87
2023-03-21T05:55:03.523Z,40.20
2023-03-21T05:57:30.028Z,40.73
2023-03-21T05:59:56.557Z,43.80
2023-03-21T06:02:23.099Z,41.47
2023-03-21T06:04:49.614Z,43.60
2023-03-21T06:07:16.104Z,44.13
2023-03-21T06:09:42.723Z,46.20
2023-03-21T06:12:09.240Z,44.17
2023-03-21T06:14:35.770Z,45.80
2023-03-21T06:17:02.213Z,46.23
2023-03-21T06:19:28.666Z,46.60
2023-03-21T06:21:55.333Z,47.40
2023-03-21T06:24:22.086Z,48.43
2023-03-21T06:26:48.585Z,47.07
2023-03-21T06:29:15.214Z,47.13
2023-03-21T06:31:41.778Z,49.53
2023-03-21T06:34:10.441Z,48.23
2023-03-21T06:36:37.255Z,48.57
2023-03-21T06:39:04.728Z,45.47
2023-03-21T06:41:31.181Z,48.00
2023-03-21T06:43:57.742Z,47.77
2023-03-21T06:46:24.261Z,45.10
2023-03-21T06:48:50.884Z,48.03
2023-03-21T06:51:17.400Z,46.50
2023-03-21T06:53:44.632Z,47.00
2023-03-21T06:56:12.193Z,45.27
2023-03-21T06:58:39.062Z,47.23
2023-03-21T07:01:06.069Z,45.90
2023-03-21T07:03:33.034Z,46.80
2023-03-21T07:06:03.510Z,48.00
2023-03-21T07:08:29.996Z,48.63
2023-03-21T07:10:57.892Z,48.00
2023-03-21T07:13:24.408Z,44.13
2023-03-21T07:15:52.880Z,45.13
2023-03-21T07:18:19.404Z,43.77
2023-03-21T07:20:51.122Z,43.70
2023-03-21T07:23:25.815Z,42.80
2023-03-21T07:25:52.932Z,41.83
2023-03-21T07:28:20.108Z,43.50
2023-03-21T07:30:52.878Z,40.53
2023-03-21T07:33:19.307Z,39.57
2023-03-21T07:35:45.940Z,42.67
2023-03-21T07:38:13.935Z,43.20
2023-03-21T07:40:40.452Z,41.40
2023-03-21T07:43:06.896Z,42.23
2023-03-21T07:45:33.380Z,41.87
2023-03-21T07:48:01.147Z,41.73
2023-03-21T07:50:27.801Z,40.90
2023-03-21T07:52:54.529Z,43.17
2023-03-21T07:55:21.045Z,42.63
2023-03-21T07:57:50.011Z,42.50
2023-03-21T08:00:23.076Z,41.67
2023-03-21T08:02:57.927Z,42.80
2023-03-21T08:05:28.075Z,43.00
2023-03-21T08:07:54.595Z,42.13
2023-03-21T08:10:21.160Z,42.23
2023-03-21T08:12:47.840Z,41.50
2023-03-21T08:15:14.682Z,43.97
2023-03-21T08:17:41.831Z,40.17
2023-03-21T08:20:10.297Z,43.23
2023-03-21T08:22:36.793Z,42.67
2023-03-21T08:25:05.712Z,46.63
2023-03-21T08:27:32.801Z,40.70
2023-03-21T08:30:00.759Z,37.63
2023-03-21T08:32:31.300Z,39.47
2023-03-21T08:35:01.554Z,36.37
2023-03-21T08:37:28.816Z,37.20
2023-03-21T08:39:55.513Z,37.53
2023-03-21T08:42:22.989Z,36.10
2023-03-21T08:44:49.782Z,36.30
2023-03-21T08:47:16.359Z,37.43
2023-03-21T08:49:45.728Z,39.33
2023-03-21T08:52:12.285Z,38.50
2023-03-21T08:54:40.070Z,36.97
2023-03-21T08:57:06.799Z,39.27
2023-03-21T08:59:33.319Z,39.93
2023-03-21T09:01:59.787Z,39.50
2023-03-21T09:04:27.086Z,39.77
2023-03-21T09:06:56.215Z,41.00
2023-03-21T09:09:22.750Z,43.30
2023-03-21T09:11:50.532Z,47.40
2023-03-21T09:14:19.310Z,43.83
2023-03-21T09:16:46.889Z,43.73
2023-03-21T09:19:13.581Z,46.50
2023-03-21T09:21:40.403Z,48.63
2023-03-21T09:24:07.332Z,43.07
2023-03-21T09:26:33.977Z,43.00
2023-03-21T09:29:01.044Z,43.80
2023-03-21T09:31:28.563Z,39.43
2023-03-21T09:33:58.063Z,39.40
2023-03-21T09:36:27.279Z,43.87
2023-03-21T09:38:54.458Z,40.10
2023-03-21T09:41:38.930Z,38.47
2023-03-21T09:44:09.062Z,39.43
2023-03-21T09:46:56.395Z,43.37
2023-03-21T09:49:29.579Z,41.23
2023-03-21T09:51:56.624Z,39.30
2023-03-21T09:54:28.025Z,36.03
2023-03-21T09:56:57.750Z,38.63
2023-03-21T09:59:30.492Z,41.60
2023-03-21T10:02:00.292Z,40.37
2023-03-21T10:04:27.686Z,40.93
2023-03-21T10:06:58.257Z,38.20
2023-03-21T10:09:30.842Z,38.23
2023-03-21T10:12:02.554Z,37.17
2023-03-21T10:14:36.349Z,35.50
2023-03-21T10:17:23.650Z,36.50
2023-03-21T10:19:57.291Z,38.80
2023-03-21T10:22:23.761Z,40.27
2023-03-21T10:24:50.663Z,36.23
2023-03-21T10:27:17.182Z,38.33
2023-03-21T10:29:44.748Z,38.57
2023-03-21T10:32:14.297Z,39.90
2023-03-21T10:34:44.148Z,39.53
2023-03-21T10:37:12.051Z,37.40
2023-03-21T10:39:40.510Z,40.40
2023-03-21T10:42:09.039Z,36.90
2023-03-21T10:44:36.009Z,41.60
2023-03-21T10:47:08.543Z,36.93
2023-03-21T10:50:06.456Z,37.50
2023-03-21T10:52:27.831Z,38.80
2023-03-21T10:55:08.495Z,38.97
2023-03-21T10:57:37.308Z,35.73
2023-03-21T11:00:17.075Z,35.53
2023-03-21T11:02:48.232Z,33.83
2023-03-21T11:05:28.008Z,35.40
2023-03-21T11:08:01.207Z,33.13
2023-03-21T11:10:32.686Z,33.80
2023-03-21T11:13:04.053Z,36.53
2023-03-21T11:15:42.541Z,37.00
2023-03-21T11:18:19.067Z,32.20
2023-03-21T11:20:57.492Z,35.00
2023-03-21T11:23:29.714Z,33.47
2023-03-21T11:25:58.346Z,29.10
2023-03-21T11:28:28.600Z,31.73
2023-03-21T11:30:57.725Z,26.63
2023-03-21T11:33:28.565Z,25.83
2023-03-21T11:36:00.333Z,23.60
2023-03-21T11:38:31.773Z,24.23
2023-03-21T11:41:01.330Z,24.03
2023-03-21T11:43:31.994Z,22.23
2023-03-21T11:46:04.799Z,20.43
2023-03-21T11:48:35.454Z,22.10
2023-03-21T11:51:39.114Z,20.73
2023-03-21T11:54:22.254Z,20.37
2023-03-21T11:56:54.274Z,19.90
2023-03-21T11:59:35.888Z,24.07
2023-03-21T12:02:15.562Z,17.93
2023-03-21T12:04:46.981Z,18.47
2023-03-21T12:07:38.483Z,17.43
2023-03-21T12:10:16.916Z,16.27
2023-03-21T12:12:56.035Z,16.80
2023-03-21T12:15:37.472Z,17.33
2023-03-21T12:18:32.781Z,16.83
2023-03-21T12:21:34.050Z,15.03
2023-03-21T12:24:25.922Z,15.17
2023-03-21T12:26:59.710Z,18.33
2023-03-21T12:29:40.194Z,16.30
2023-03-21T12:32:09.625Z,15.07
2023-03-21T12:35:01.371Z,16.67
2023-03-21T12:37:53.851Z,16.47
2023-03-21T12:40:40.707Z,16.73
2023-03-21T12:43:29.642Z,15.60
2023-03-21T12:46:00.260Z,16.83
2023-03-21T12:48:48.632Z,15.67
2023-03-21T12:51:18.523Z,15.60
2023-03-21T12:53:53.148Z,16.47
2023-03-21T12:56:28.803Z,15.67
2023-03-21T12:59:05.814Z,15.63
2023-03-21T13:01:32.794Z,15.50
2023-03-21T13:04:27.353Z,15.70
2023-03-21T13:06:55.451Z,15.00
2023-03-21T13:09:38.266Z,15.00
2023-03-21T13:12:28.023Z,14.33
2023-03-21T13:15:24.181Z,14.90
2023-03-21T13:17:59.108Z,15.30
2023-03-21T13:20:46.610Z,13.97
2023-03-21T13:23:13.795Z,13.23
2023-03-21T13:25:46.806Z,13.13
2023-03-21T13:28:19.289Z,12.70
2023-03-21T13:30:47.102Z,12.57
2023-03-21T13:33:16.738Z,12.33
2023-03-21T13:35:45.065Z,12.40
2023-03-21T13:38:21.433Z,11.47
2023-03-21T13:40:50.587Z,11.93
2023-03-21T13:43:42.812Z,11.33
2023-03-21T13:46:14.741Z,10.47
2023-03-21T13:48:57.877Z,10.50
2023-03-21T13:51:47.663Z,9.83
2023-03-21T13:54:14.089Z,11.10
2023-03-21T13:56:46.656Z,8.90
2023-03-21T13:59:34.889Z,9.20
2023-03-21T14:02:13.616Z,8.30
2023-03-21T14:04:53.893Z,8.70
2023-03-21T14:07:31.484Z,9.40
2023-03-21T14:10:29.970Z,9.80
2023-03-21T14:12:57.289Z,9.10
2023-03-21T14:15:27.718Z,8.17
2023-03-21T14:17:55.367Z,8.33
2023-03-21T14:20:24.319Z,8.87
2023-03-21T14:22:51.261Z,8.60
2023-03-21T14:25:20.478Z,8.80
2023-03-21T14:28:09.216Z,8.90
2023-03-21T14:30:40.968Z,8.97
2023-03-21T14:33:11.293Z,8.90
2023-03-21T14:35:38.641Z,8.10
2023-03-21T14:38:07.485Z,7.27
2023-03-21T14:40:33.973Z,7.67
2023-03-21T14:43:07.420Z,7.67
2023-03-21T14:45:35.376Z,7.77
2023-03-21T14:48:08.555Z,8.37
2023-03-21T14:50:47.698Z,7.77
2023-03-21T14:53:29.031Z,7.40
2023-03-21T14:56:08.209Z,7.60
2023-03-21T14:58:38.646Z,8.37
2023-03-21T15:01:07.545Z,10.03
2023-03-21T15:03:34.643Z,9.80
2023-03-21T15:06:01.587Z,9.10
2023-03-21T15:08:29.003Z,8.93
2023-03-21T15:11:08.187Z,9.60
2023-03-21T15:13:45.698Z,9.90
2023-03-21T15:16:14.807Z,9.57
2023-03-21T15:18:42.150Z,9.90
2023-03-21T15:21:12.993Z,9.50
2023-03-21T15:23:40.661Z,10.03
2023-03-21T15:26:07.291Z,10.23
2023-03-21T15:28:34.779Z,10.30
2023-03-21T15:31:01.651Z,10.93
2023-03-21T15:33:28.332Z,11.33
2023-03-21T15:35:57.142Z,11.00
2023-03-21T15:38:40.132Z,11.40
2023-03-21T15:41:28.346Z,11.53
2023-03-21T15:44:15.914Z,11.63
2023-03-21T15:46:51.383Z,11.50
2023-03-21T15:49:27.658Z,12.03
2023-03-21T15:52:01.778Z,11.37
2023-03-21T15:54:34.390Z,12.20
2023-03-21T15:57:09.346Z,11.83
2023-03-21T15:59:40.466Z,12.17
2023-03-21T16:02:17.657Z,11.63
2023-03-21T16:04:56.345Z,11.03
2023-03-21T16:07:25.059Z,13.73
2023-03-21T16:09:58.508Z,13.83
2023-03-21T16:12:25.069Z,14.57
2023-03-21T16:14:51.584Z,14.77
2023-03-21T16:17:30.402Z,14.30
2023-03-21T16:19:57.004Z,14.67
2023-03-21T16:22:23.673Z,15.40
2023-03-21T16:24:50.197Z,15.47
2023-03-21T16:27:17.711Z,15.97
2023-03-21T16:29:44.236Z,15.33
2023-03-21T16:32:17.139Z,15.43
2023-03-21T16:34:45.293Z,15.90
2023-03-21T16:37:12.508Z,15.33
2023-03-21T16:39:39.177Z,16.07
2023-03-21T16:42:05.836Z,17.43
2023-03-21T16:44:33.819Z,17.93
2023-03-21T16:47:02.376Z,17.17
2023-03-21T16:49:29.073Z,17.10
2023-03-21T16:51:57.340Z,16.90
2023-03-21T16:54:24.153Z,16.67
2023-03-21T16:56:53.138Z,18.20
2023-03-21T16:59:20.358Z,16.73
2023-03-21T17:01:48.134Z,18.50
2023-03-21T17:04:16.274Z,17.67
2023-03-21T17:06:47.403Z,17.90
2023-03-21T17:09:15.539Z,18.13
2023-03-21T17:11:42.362Z,18.37
2023-03-21T17:14:10.759Z,18.50
2023-03-21T17:16:40.274Z,18.10
2023-03-21T17:19:16.385Z,18.90
2023-03-21T17:21:42.949Z,17.83
2023-03-21T17:24:10.063Z,18.87
2023-03-21T17:26:37.180Z,19.10
2023-03-21T17:29:03.958Z,18.77
2023-03-21T17:31:37.514Z,20.57
2023-03-21T17:34:04.547Z,19.50
2023-03-21T17:36:39.963Z,18.97
2023-03-21T17:39:08.760Z,19.03
2023-03-21T17:41:35.560Z,18.53
2023-03-21T17:44:02.790Z,19.33
2023-03-21T17:46:29.827Z,18.23
2023-03-21T17:48:56.879Z,18.23
2023-03-21T17:51:26.220Z,19.37
2023-03-21T17:53:52.809Z,22.07
2023-03-21T17:56:26.255Z,23.73
2023-03-21T17:58:53.687Z,25.93
2023-03-21T18:01:20.330Z,30.20
2023-03-21T18:03:47.215Z,26.13
2023-03-21T18:06:18.001Z,23.20
2023-03-21T18:08:45.448Z,23.30
2023-03-21T18:11:12.878Z,22.10
2023-03-21T18:13:40.325Z,22.27
2023-03-21T18:16:07.581Z,20.63
2023-03-21T18:18:34.107Z,21.43
2023-03-21T18:21:01.374Z,20.27
2023-03-21T18:23:27.999Z,19.17
2023-03-21T18:25:54.479Z,19.67
2023-03-21T18:28:21.821Z,20.57
2023-03-21T18:31:07.838Z,20.80
2023-03-21T18:33:37.922Z,20.33
2023-03-21T18:36:07.385Z,21.93
2023-03-21T18:38:34.472Z,20.57
2023-03-21T18:41:00.908Z,21.73
2023-03-21T18:46:16.071Z,21.30
2023-03-21T18:48:43.942Z,22.80
2023-03-21T18:51:11.931Z,22.77
2023-03-21T18:53:52.999Z,23.40
2023-03-21T18:57:06.141Z,24.17
2023-03-21T18:59:08.588Z,24.40
2023-03-21T19:01:35.950Z,23.23
2023-03-21T19:04:22.859Z,24.63
2023-03-21T19:06:53.422Z,24.97
2023-03-21T19:09:29.074Z,25.30
2023-03-21T19:11:58.859Z,24.77
2023-03-21T19:14:26.026Z,26.73
2023-03-21T19:18:03.043Z,25.50
2023-03-21T19:19:41.329Z,26.67
2023-03-21T19:22:07.917Z,25.60
2023-03-21T19:24:34.532Z,24.77
2023-03-21T19:27:01.031Z,26.70
2023-03-21T19:29:27.533Z,26.20
2023-03-21T19:31:54.150Z,26.77
2023-03-21T19:34:20.866Z,26.03
2023-03-21T19:36:51.582Z,26.20
2023-03-21T19:39:22.137Z,28.00
2023-03-21T19:41:48.992Z,26.90
2023-03-21T19:44:15.541Z,28.00
2023-03-21T19:46:42.806Z,27.50
2023-03-21T19:49:09.818Z,26.33
2023-03-21T19:51:37.162Z,27.30
2023-03-21T19:54:05.584Z,27.30
2023-03-21T19:56:32.176Z,27.37
2023-03-21T19:58:59.773Z,28.27
2023-03-21T20:01:26.705Z,27.90
2023-03-21T20:03:53.717Z,29.27
2023-03-21T20:06:22.507Z,29.67
2023-03-21T20:09:47.245Z,29.80
2023-03-21T20:11:36.603Z,28.70
2023-03-21T20:14:03.542Z,29.80
2023-03-21T20:16:35.082Z,30.80
2023-03-21T20:19:04.531Z,30.43
2023-03-21T20:21:36.628Z,32.97
2023-03-21T20:24:08.857Z,31.73
2023-03-21T20:26:37.519Z,28.03
2023-03-21T20:29:43.653Z,30.83
2023-03-21T20:31:53.210Z,28.87
2023-03-21T20:34:20.586Z,28.50
2023-03-21T20:36:48.239Z,28.90
2023-03-21T20:39:15.391Z,27.70
2023-03-21T20:41:41.921Z,30.57
2023-03-21T20:44:42.234Z,32.70
2023-03-21T20:47:00.485Z,30.57
2023-03-21T20:49:28.196Z,31.43
2023-03-21T20:54:42.271Z,28.53
2023-03-21T20:57:09.113Z,29.80
2023-03-21T20:59:35.722Z,28.13
2023-03-21T21:02:05.298Z,29.80
2023-03-21T21:05:12.265Z,29.77
2023-03-21T21:07:21.880Z,28.53
2023-03-21T21:09:49.279Z,30.13
2023-03-21T21:12:19.262Z,29.40
2023-03-21T21:14:46.828Z,28.57
2023-03-21T21:20:01.637Z,29.63
2023-03-21T21:22:29.168Z,30.87
2023-03-21T21:24:55.623Z,32.00
2023-03-21T21:27:22.116Z,32.23
2023-03-21T21:29:50.217Z,31.53
2023-03-21T21:32:18.677Z,32.40
2023-03-21T21:34:45.617Z,30.37
2023-03-21T21:37:12.360Z,31.13
2023-03-21T21:39:40.332Z,32.37
2023-03-21T21:42:06.924Z,31.27
2023-03-21T21:44:33.389Z,31.77
2023-03-21T21:46:59.941Z,31.50
2023-03-21T21:49:31.522Z,30.77
2023-03-21T21:51:59.855Z,29.97
2023-03-21T21:54:30.329Z,31.00
2023-03-21T21:56:58.084Z,31.30
2023-03-21T21:59:24.744Z,30.30
2023-03-21T22:01:51.508Z,30.60
2023-03-21T22:04:18.983Z,29.43
2023-03-21T22:06:48.357Z,29.20
2023-03-21T22:09:18.027Z,29.00
2023-03-21T22:11:44.593Z,28.67
2023-03-21T22:14:11.052Z,27.00
2023-03-21T22:16:37.603Z,28.37
2023-03-21T22:19:04.695Z,28.70
2023-03-21T22:21:34.485Z,29.50
2023-03-21T22:24:01.772Z,29.60
2023-03-21T22:26:28.558Z,30.40
2023-03-21T22:28:55.140Z,32.23
2023-03-21T22:31:27.045Z,28.90
2023-03-21T22:33:56.540Z,28.73
2023-03-21T22:36:22.996Z,28.00
2023-03-21T22:38:49.445Z,28.87
2023-03-21T22:41:15.902Z,27.33
2023-03-21T22:43:42.463Z,26.73
2023-03-21T22:46:09.021Z,27.33
2023-03-21T22:48:35.581Z,27.27
2023-03-21T22:51:02.113Z,26.77
2023-03-21T22:53:29.142Z,26.87
2023-03-21T22:55:55.775Z,24.97
2023-03-21T22:58:22.344Z,26.30
2023-03-21T23:00:48.923Z,26.20
2023-03-21T23:03:16.805Z,26.00
2023-03-21T23:05:44.279Z,25.80
2023-03-21T23:08:11.121Z,25.63
2023-03-21T23:10:39.444Z,26.07
2023-03-21T23:13:07.381Z,26.10
2023-03-21T23:15:34.018Z,25.77
2023-03-21T23:18:00.515Z,28.00
2023-03-21T23:20:27.177Z,26.93
2023-03-21T23:22:53.781Z,28.67
2023-03-21T23:25:20.698Z,26.93
2023-03-21T23:27:50.633Z,25.63
2023-03-21T23:30:17.218Z,27.50
2023-03-21T23:32:43.686Z,28.07
2023-03-21T23:35:10.360Z,27.77
2023-03-21T23:37:37.170Z,27.07
2023-03-21T23:40:08.950Z,28.03
2023-03-21T23:42:36.211Z,26.67
2023-03-21T23:45:02.818Z,26.20
2023-03-21T23:47:30.921Z,28.80
2023-03-21T23:49:58.373Z,27.17
2023-03-21T23:52:28.265Z,26.93
2023-03-21T23:54:55.528Z,27.43
2023-03-21T23:57:22.065Z,27.00
2023-03-21T23:59:48.530Z,26.53
